createdAt,value
2018-12-10T00:00:01.471Z,33.97
2018-12-10T00:02:30.044Z,30.17
2018-12-10T00:04:58.767Z,31.57
2018-12-10T00:07:27.469Z,30.87
2018-12-10T00:09:56.381Z,34.03
2018-12-10T00:12:25.073Z,31.03
2018-12-10T00:14:53.680Z,32.83
2018-12-10T00:17:22.345Z,30.13
2018-12-10T00:19:50.924Z,34.33
2018-12-10T00:22:19.579Z,30.90
2018-12-10T00:24:48.194Z,30.80
2018-12-10T00:27:16.825Z,31.23
2018-12-10T00:29:45.510Z,29.43
2018-12-10T00:32:14.102Z,31.07
2018-12-10T00:34:42.861Z,29.00
2018-12-10T00:37:11.471Z,30.10
2018-12-10T00:39:40.111Z,28.57
2018-12-10T00:42:08.829Z,30.60
2018-12-10T00:44:37.423Z,30.30
2018-12-10T00:47:06.093Z,29.80
2018-12-10T00:49:34.736Z,29.33
2018-12-10T00:52:03.369Z,30.23
2018-12-10T00:54:32.071Z,28.60
2018-12-10T00:57:00.720Z,28.47
2018-12-10T00:59:29.465Z,30.30
2018-12-10T01:01:58.104Z,31.37
2018-12-10T01:04:26.746Z,32.50
2018-12-10T01:06:55.378Z,32.63
2018-12-10T01:09:24.172Z,31.63
2018-12-10T01:11:52.741Z,34.07
2018-12-10T01:14:21.352Z,38.57
2018-12-10T01:16:50.030Z,37.20
2018-12-10T01:19:18.673Z,35.03
2018-12-10T01:21:47.705Z,37.70
2018-12-10T01:24:16.569Z,34.30
2018-12-10T01:26:45.327Z,37.53
2018-12-10T01:29:13.947Z,37.17
2018-12-10T01:31:42.837Z,39.40
2018-12-10T01:34:11.477Z,38.83
2018-12-10T01:36:40.456Z,38.73
2018-12-10T01:39:10.163Z,39.60
2018-12-10T01:41:38.838Z,38.30
2018-12-10T01:44:07.492Z,36.77
2018-12-10T01:46:36.183Z,38.97
2018-12-10T01:49:04.798Z,40.23
2018-12-10T01:51:33.450Z,36.83
2018-12-10T01:54:02.095Z,34.63
2018-12-10T01:56:30.765Z,35.70
2018-12-10T01:58:59.432Z,37.00
2018-12-10T02:01:28.079Z,36.23
2018-12-10T02:03:56.718Z,38.47
2018-12-10T02:06:25.409Z,38.47
2018-12-10T02:08:54.037Z,38.23
2018-12-10T02:11:22.682Z,35.33
2018-12-10T02:13:53.141Z,34.63
2018-12-10T02:16:21.777Z,35.77
2018-12-10T02:18:50.544Z,34.73
2018-12-10T02:21:19.149Z,35.27
2018-12-10T02:23:47.815Z,37.63
2018-12-10T02:26:16.679Z,35.80
2018-12-10T02:28:50.523Z,34.90
2018-12-10T02:31:19.112Z,34.77
2018-12-10T02:33:47.757Z,37.03
2018-12-10T02:36:16.502Z,42.43
2018-12-10T02:38:45.287Z,39.20
2018-12-10T02:41:13.986Z,37.93
2018-12-10T02:43:44.063Z,33.70
2018-12-10T02:46:12.705Z,37.47
2018-12-10T02:48:41.535Z,37.47
2018-12-10T02:51:10.329Z,34.20
2018-12-10T02:53:38.963Z,35.67
2018-12-10T02:56:07.634Z,35.13
2018-12-10T03:01:35.470Z,35.63
2018-12-10T03:04:04.166Z,35.57
2018-12-10T03:06:32.869Z,31.50
2018-12-10T03:09:01.492Z,32.80
2018-12-10T03:11:30.094Z,33.93
2018-12-10T03:13:58.798Z,34.57
2018-12-10T03:16:27.585Z,39.20
2018-12-10T03:18:56.309Z,39.90
2018-12-10T03:21:25.037Z,38.37
2018-12-10T03:23:53.646Z,39.83
2018-12-10T03:26:22.235Z,41.23
2018-12-10T03:28:50.835Z,35.07
2018-12-10T03:31:19.481Z,36.23
2018-12-10T03:33:48.258Z,39.70
2018-12-10T03:36:16.904Z,39.77
2018-12-10T03:38:45.560Z,35.43
2018-12-10T03:41:14.213Z,37.47
2018-12-10T03:43:42.859Z,34.87
2018-12-10T03:46:11.500Z,34.77
2018-12-10T03:48:40.216Z,41.33
2018-12-10T03:51:08.844Z,38.93
2018-12-10T03:53:37.540Z,37.77
2018-12-10T03:56:06.187Z,37.00
2018-12-10T03:58:37.192Z,37.70
2018-12-10T04:01:05.936Z,38.60
2018-12-10T04:03:34.565Z,38.13
2018-12-10T04:06:03.221Z,40.27
2018-12-10T04:08:31.935Z,43.57
2018-12-10T04:11:00.567Z,47.70
2018-12-10T04:13:29.254Z,44.17
2018-12-10T04:15:58.018Z,40.60
2018-12-10T04:18:26.656Z,44.90
2018-12-10T04:20:55.279Z,41.17
2018-12-10T04:23:23.890Z,44.30
2018-12-10T04:25:52.491Z,43.23
2018-12-10T04:28:21.095Z,49.13
2018-12-10T04:30:50.400Z,40.90
2018-12-10T04:33:19.089Z,41.20
2018-12-10T04:35:48.418Z,45.40
2018-12-10T04:38:17.000Z,45.00
2018-12-10T04:40:45.930Z,41.03
2018-12-10T04:43:14.528Z,42.33
2018-12-10T04:45:43.180Z,37.90
2018-12-10T04:48:12.892Z,39.93
2018-12-10T04:50:41.604Z,42.30
2018-12-10T04:53:10.385Z,44.53
2018-12-10T04:55:39.053Z,48.53
2018-12-10T04:58:07.734Z,47.10
2018-12-10T05:00:36.502Z,45.27
2018-12-10T05:03:05.854Z,48.47
2018-12-10T05:05:34.519Z,43.37
2018-12-10T05:08:03.272Z,47.43
2018-12-10T05:10:31.879Z,45.63
2018-12-10T05:13:01.066Z,45.67
2018-12-10T05:15:29.696Z,45.57
2018-12-10T05:17:59.346Z,45.80
2018-12-10T05:20:28.012Z,47.60
2018-12-10T05:22:56.620Z,45.50
2018-12-10T05:25:25.318Z,44.67
2018-12-10T05:27:53.978Z,44.43
2018-12-10T05:30:22.737Z,46.50
2018-12-10T05:32:51.503Z,44.77
2018-12-10T05:35:20.204Z,42.00
2018-12-10T05:37:49.931Z,43.93
2018-12-10T05:40:18.676Z,40.83
2018-12-10T05:42:48.008Z,41.17
2018-12-10T05:45:17.017Z,44.40
2018-12-10T05:47:45.751Z,51.30
2018-12-10T17:41:17.874Z,13.43
2018-12-10T17:43:46.749Z,12.30
2018-12-10T17:46:15.494Z,11.50
2018-12-10T17:48:45.483Z,12.80
2018-12-10T17:51:15.316Z,12.77
2018-12-10T17:53:46.229Z,12.97
2018-12-10T17:57:45.323Z,12.93
2018-12-10T18:00:14.367Z,13.23
2018-12-10T18:02:43.203Z,11.27
2018-12-10T18:05:11.887Z,9.37
2018-12-10T18:07:40.655Z,8.53
2018-12-10T18:10:09.665Z,9.43
2018-12-10T18:12:38.503Z,11.20
2018-12-10T18:15:07.899Z,11.33
2018-12-10T18:17:36.647Z,12.43
2018-12-10T18:20:08.374Z,10.47
2018-12-10T18:22:37.141Z,10.80
2018-12-10T18:25:06.200Z,7.00
2018-12-10T18:27:34.951Z,8.27
2018-12-10T18:32:38.412Z,13.03
2018-12-10T18:35:08.036Z,11.83
2018-12-10T18:37:36.780Z,11.57
2018-12-10T18:40:09.622Z,12.13
2018-12-10T18:42:38.343Z,10.63
2018-12-10T18:45:10.297Z,12.13
2018-12-10T18:47:39.119Z,11.60
2018-12-10T18:50:08.063Z,11.30
2018-12-10T18:52:36.834Z,11.43
2018-12-10T18:55:06.091Z,11.40
2018-12-10T18:57:34.750Z,11.27
2018-12-10T19:00:10.574Z,12.10
2018-12-10T19:02:40.489Z,11.10
2018-12-10T19:05:10.361Z,13.07
2018-12-10T19:07:39.164Z,9.80
2018-12-10T19:10:09.226Z,10.73
2018-12-10T19:12:38.294Z,10.90
2018-12-10T19:15:09.979Z,9.23
2018-12-10T19:17:38.832Z,10.50
2018-12-10T19:20:13.474Z,8.80
2018-12-10T19:22:38.939Z,6.07
2018-12-10T19:25:07.942Z,12.60
2018-12-10T19:27:36.570Z,9.03
2018-12-10T19:30:11.623Z,5.87
2018-12-10T19:32:40.304Z,9.60
2018-12-10T19:35:09.186Z,9.50
2018-12-10T19:37:37.853Z,5.80
2018-12-10T19:40:08.044Z,6.73
2018-12-10T19:42:36.679Z,10.20
2018-12-10T19:45:06.413Z,9.63
2018-12-10T19:47:35.097Z,9.13
2018-12-10T19:50:04.735Z,11.80
2018-12-10T19:52:33.383Z,12.63
2018-12-10T19:55:02.238Z,9.17
2018-12-10T19:57:30.919Z,12.40
2018-12-10T19:59:59.622Z,11.07
2018-12-10T20:02:28.373Z,10.30
2018-12-10T20:04:57.036Z,10.87
2018-12-10T20:08:03.719Z,11.70
2018-12-10T20:10:32.434Z,8.80
2018-12-10T20:13:01.179Z,9.43
2018-12-10T20:15:29.813Z,9.37
2018-12-10T20:18:01.485Z,10.63
2018-12-10T20:20:30.187Z,9.13
2018-12-10T20:22:58.856Z,7.43
2018-12-10T20:25:27.519Z,6.73
2018-12-10T20:27:56.324Z,7.83
2018-12-10T20:30:25.017Z,5.70
2018-12-10T20:32:53.691Z,6.00
2018-12-10T20:35:22.514Z,5.37
2018-12-10T20:37:51.260Z,7.77
2018-12-10T20:40:19.936Z,8.00
2018-12-10T20:42:48.611Z,7.37
2018-12-10T20:45:18.250Z,6.27
2018-12-10T20:47:46.961Z,6.37
2018-12-10T20:50:15.707Z,8.10
2018-12-10T20:52:44.449Z,8.27
2018-12-10T20:55:13.132Z,5.73
2018-12-10T20:57:41.886Z,8.37
2018-12-10T21:00:11.041Z,7.20
2018-12-10T21:02:39.699Z,6.87
2018-12-10T21:05:08.376Z,5.50
2018-12-10T21:07:37.133Z,6.30
2018-12-10T21:10:06.383Z,6.43
2018-12-10T21:12:35.030Z,5.97
2018-12-10T21:15:04.378Z,8.50
2018-12-10T21:17:33.077Z,7.93
2018-12-10T21:20:01.692Z,9.33
2018-12-10T21:22:30.327Z,5.73
2018-12-10T21:24:58.879Z,5.33
2018-12-10T21:27:27.499Z,5.67
2018-12-10T21:29:56.318Z,4.60
2018-12-10T21:32:24.944Z,4.97
2018-12-10T21:34:53.566Z,4.00
2018-12-10T21:37:22.320Z,4.90
2018-12-10T21:39:51.009Z,4.90
2018-12-10T21:42:19.724Z,6.60
2018-12-10T21:44:48.475Z,5.43
2018-12-10T21:47:17.091Z,4.57
2018-12-10T21:49:45.761Z,4.93
2018-12-10T21:52:14.391Z,4.73
2018-12-10T21:54:43.863Z,5.57
2018-12-10T21:57:12.543Z,5.90
2018-12-10T21:59:41.164Z,7.73
2018-12-10T22:02:09.801Z,6.90
2018-12-10T22:04:38.397Z,6.97
2018-12-10T22:07:07.043Z,4.63
2018-12-10T22:09:35.683Z,5.50
2018-12-10T22:12:04.347Z,7.30
2018-12-10T22:14:32.970Z,6.90
2018-12-10T22:17:01.556Z,6.43
2018-12-10T22:19:30.557Z,8.43
2018-12-10T22:21:59.248Z,6.60
2018-12-10T22:24:27.880Z,6.53
2018-12-10T22:26:56.546Z,6.63
2018-12-10T22:29:25.271Z,2.90
2018-12-10T22:31:53.981Z,4.23
2018-12-10T22:34:22.633Z,5.40
2018-12-10T22:36:51.233Z,6.70
2018-12-10T22:39:19.857Z,3.83
2018-12-10T22:43:17.856Z,4.73
2018-12-10T22:45:46.452Z,4.80
2018-12-10T22:48:15.099Z,3.03
2018-12-10T22:50:43.760Z,3.50
2018-12-10T22:53:12.388Z,4.60
2018-12-10T22:55:41.100Z,2.10
2018-12-10T22:58:09.691Z,3.63
2018-12-10T23:00:45.395Z,3.40
2018-12-10T23:03:14.058Z,3.83
2018-12-10T23:05:43.002Z,4.90
2018-12-10T23:08:11.676Z,4.50
2018-12-10T23:10:40.332Z,3.13
2018-12-10T23:13:08.978Z,3.83
2018-12-10T23:15:37.622Z,3.70
2018-12-10T23:18:06.239Z,5.23
2018-12-10T23:20:34.835Z,3.73
2018-12-10T23:25:55.918Z,3.53
2018-12-10T23:28:24.556Z,7.50
2018-12-10T23:30:53.206Z,4.07
2018-12-10T23:33:22.809Z,3.37
2018-12-10T23:35:51.486Z,2.60
2018-12-10T23:38:20.131Z,2.17
2018-12-10T23:40:48.766Z,4.63
2018-12-10T23:43:23.041Z,8.37
2018-12-10T23:45:51.713Z,3.93
2018-12-10T23:48:20.335Z,2.90
2018-12-10T23:50:49.004Z,4.90
2018-12-10T23:53:17.615Z,2.60
2018-12-10T23:55:46.300Z,3.03
2018-12-10T23:58:14.962Z,4.57
